Marshall Don Hunter Sr Airport Marshall US
ICAO: PADM
IATA:
Category: Medium
Scheduled Services:

Elevation: 103 ft
TransAlt. 18000 ft.

Airport Communications:
ANCHORAGE CNTR:132.3
CTAF:122.9
ST MARYS RDO:124

PADM Zoom In..

If you have problems with the map follow the link
https://www.worldairports.se/pages/airport.php?
ICAO=PADM

Runways:

(A) RW 07 length 3200 ft width 100 ft
---- / hdg 70

(B) RW 25 length 3200 ft width 100 ft
---- / hdg 250

Location; PADM
Day. 18 / Time. 13.51 Zulu
* Altimeter: 29.36
* Temperature: 01° c. 33.8°f.
* Wind from: 080° Speed 11 kn.
Dewpoint: -01° c.
Visibility: 10 Statute Miles.
Clouds: Few 1200 ft.
Clouds: Overcast 2100 ft.

PADM 181351Z AUTO 08011KT 10SM FEW012 OVC021 01/M01 A2936 RMK AO2 FZRANO


Wind From 080°
Speed 11 kn.

 
 
jpsmedia.com for Web Design worldairports.se 2018   terms of use